Terminal Aerodrome Forecast
Issued by NWS Tampa Bay Area, FL

Home | Current Version | Previous Version | Text Only | Print | Product List | Glossary On
Versions: 1 2 3 4 5 6 7 8 9 10 11 12 13 14 15
000
FTUS42 KTBW 191700
TAFSRQ
TAF
KSRQ 191727Z 1918/2018 07008KT 6SM SHRA SCT040 OVC100
      TEMPO 1918/1920 4SM SHRA BKN015
     FM200000 07008KT 6SM BR VCSH SCT020 BKN035 OVC100
     FM200600 09004KT P6SM VCSH FEW015 BKN035 OVC070=

USA.gov is the U.S. government's official web portal to all federal, state and local government web resources and services.